createdAt,value
2022-11-03T00:01:07.973Z,10.50
2022-11-03T00:03:35.878Z,8.00
2022-11-03T00:06:07.286Z,7.60
2022-11-03T00:08:36.874Z,7.20
2022-11-03T00:11:12.941Z,7.80
2022-11-03T00:13:42.522Z,7.50
2022-11-03T00:16:13.357Z,7.40
2022-11-03T00:18:40.924Z,6.80
2022-11-03T00:21:11.233Z,6.50
2022-11-03T00:23:41.151Z,7.30
2022-11-03T00:26:10.503Z,6.70
2022-11-03T00:28:39.103Z,5.90
2022-11-03T00:31:12.964Z,6.80
2022-11-03T00:33:41.559Z,8.30
2022-11-03T00:36:13.116Z,8.10
2022-11-03T00:38:40.725Z,6.20
2022-11-03T00:41:10.689Z,7.80
2022-11-03T00:43:38.414Z,6.70
2022-11-03T00:46:07.561Z,6.50
2022-11-03T00:48:36.935Z,7.10
2022-11-03T00:51:16.171Z,5.30
2022-11-03T00:53:50.181Z,6.40
2022-11-03T00:56:20.656Z,7.10
2022-11-03T00:58:49.821Z,6.40
2022-11-03T01:01:31.765Z,6.60
2022-11-03T01:04:14.660Z,5.30
2022-11-03T01:06:51.090Z,5.70
2022-11-03T01:09:34.720Z,6.10
2022-11-03T01:12:13.181Z,5.50
2022-11-03T01:14:42.388Z,6.40
2022-11-03T01:17:27.206Z,4.80
2022-11-03T01:19:55.186Z,7.60
2022-11-03T01:22:23.976Z,5.40
2022-11-03T01:24:54.111Z,5.50
2022-11-03T01:27:25.582Z,6.40
2022-11-03T01:29:53.124Z,6.50
2022-11-03T01:32:20.669Z,5.80
2022-11-03T01:34:48.212Z,6.90
2022-11-03T01:37:15.755Z,6.00
2022-11-03T01:39:43.268Z,6.00
2022-11-03T01:42:14.429Z,7.70
2022-11-03T01:44:47.588Z,6.00
2022-11-03T01:47:19.289Z,4.30
2022-11-03T01:49:57.264Z,6.00
2022-11-03T01:52:37.434Z,4.90
2022-11-03T01:55:11.140Z,4.40
2022-11-03T01:57:50.545Z,6.80
2022-11-03T02:00:18.235Z,5.30
2022-11-03T02:02:46.277Z,5.70
2022-11-03T02:05:16.535Z,4.90
2022-11-03T02:07:51.135Z,7.00
2022-11-03T02:10:19.071Z,5.10
2022-11-03T02:12:48.109Z,5.20
2022-11-03T02:15:18.976Z,5.40
2022-11-03T02:17:48.954Z,5.70
2022-11-03T02:20:30.043Z,4.70
2022-11-03T02:23:13.819Z,4.50
2022-11-03T02:25:48.873Z,6.50
2022-11-03T02:28:21.294Z,4.40
2022-11-03T02:31:10.972Z,5.70
2022-11-03T02:33:59.925Z,6.10
2022-11-03T02:36:43.044Z,5.80
2022-11-03T02:41:49.028Z,5.30
2022-11-03T02:44:19.655Z,5.60
2022-11-03T02:46:54.580Z,6.90
2022-11-03T02:49:22.133Z,4.90
2022-11-03T02:51:59.673Z,5.90
2022-11-03T02:54:35.745Z,5.00
2022-11-03T02:57:07.966Z,6.70
2022-11-03T03:00:00.026Z,4.90
2022-11-03T03:02:36.006Z,5.40
2022-11-03T03:05:08.793Z,6.70
2022-11-03T03:07:40.728Z,5.60
2022-11-03T03:10:14.520Z,5.20
2022-11-03T03:12:54.815Z,5.60
2022-11-03T03:15:34.228Z,4.60
2022-11-03T03:18:15.975Z,5.50
2022-11-03T03:21:04.868Z,5.70
2022-11-03T03:23:36.739Z,6.10
2022-11-03T03:26:15.702Z,6.40
2022-11-03T03:29:02.266Z,6.10
2022-11-03T03:31:35.159Z,6.00
2022-11-03T03:34:16.292Z,5.30
2022-11-03T03:36:54.026Z,5.80
2022-11-03T03:39:25.285Z,4.80
2022-11-03T03:41:55.499Z,5.00
2022-11-03T03:44:24.446Z,6.10
2022-11-03T03:46:59.599Z,5.40
2022-11-03T03:49:27.317Z,5.20
2022-11-03T03:51:55.072Z,5.20
2022-11-03T03:54:22.637Z,6.60
2022-11-03T03:57:02.101Z,5.50
2022-11-03T03:59:30.258Z,6.80
2022-11-03T04:01:59.114Z,4.90
2022-11-03T04:04:26.809Z,4.80
2022-11-03T04:07:14.317Z,4.90
2022-11-03T04:09:41.921Z,6.00
2022-11-03T04:12:24.436Z,6.30
2022-11-03T04:15:07.964Z,7.60
2022-11-03T04:17:52.173Z,6.80
2022-11-03T04:20:34.637Z,6.40
2022-11-03T04:23:02.148Z,8.60
2022-11-03T04:25:29.671Z,5.70
2022-11-03T04:27:57.255Z,6.10
2022-11-03T04:30:26.303Z,6.80
2022-11-03T04:32:54.508Z,6.50
2022-11-03T04:35:24.571Z,5.70
2022-11-03T04:37:57.277Z,7.00
2022-11-03T04:40:25.045Z,5.60
2022-11-03T04:42:52.702Z,8.70
2022-11-03T04:45:28.837Z,6.80
2022-11-03T04:47:59.062Z,6.40
2022-11-03T04:50:26.592Z,6.00
2022-11-03T04:53:00.183Z,6.00
2022-11-03T04:55:27.772Z,6.40
2022-11-03T04:58:02.635Z,6.60
2022-11-03T05:00:30.138Z,5.90
2022-11-03T05:02:57.975Z,6.30
2022-11-03T05:05:26.774Z,6.00
2022-11-03T05:07:56.705Z,6.30
2022-11-03T05:10:27.072Z,9.40
2022-11-03T05:12:56.013Z,44.90
2022-11-03T05:15:31.510Z,92.70
2022-11-03T05:18:01.306Z,22.20
2022-11-03T05:20:39.333Z,7.30
2022-11-03T05:23:12.250Z,10.70
2022-11-03T05:25:47.634Z,12.60
2022-11-03T05:28:21.404Z,8.20
2022-11-03T05:30:50.183Z,6.90
2022-11-03T05:33:30.653Z,7.20
2022-11-03T05:36:03.057Z,8.30
2022-11-03T05:38:32.430Z,7.40
2022-11-03T05:41:01.095Z,8.00
2022-11-03T05:43:29.808Z,7.50
2022-11-03T05:46:02.131Z,6.70
2022-11-03T05:48:40.922Z,7.60
2022-11-03T05:51:31.782Z,7.40
2022-11-03T05:54:02.753Z,11.90
2022-11-03T05:56:32.972Z,7.30
2022-11-03T05:59:02.847Z,12.30
2022-11-03T06:01:33.812Z,6.90
2022-11-03T06:04:22.504Z,6.50
2022-11-03T06:06:55.853Z,6.30
2022-11-03T06:09:26.760Z,8.50
2022-11-03T06:11:57.138Z,6.40
2022-11-03T06:14:27.061Z,9.70
2022-11-03T06:16:57.837Z,8.00
2022-11-03T06:19:31.228Z,6.90
2022-11-03T06:22:24.491Z,11.20
2022-11-03T06:25:31.333Z,9.40
2022-11-03T06:28:17.811Z,10.70
2022-11-03T06:30:46.425Z,7.90
2022-11-03T06:33:24.790Z,7.60
2022-11-03T06:35:59.472Z,6.80
2022-11-03T06:38:30.062Z,6.80
2022-11-03T06:40:58.706Z,7.20
2022-11-03T06:43:32.218Z,8.80
2022-11-03T06:46:18.887Z,9.40
2022-11-03T06:48:47.590Z,7.70
2022-11-03T06:51:30.008Z,7.90
2022-11-03T06:53:59.991Z,8.00
2022-11-03T06:56:35.178Z,8.80
2022-11-03T06:59:03.275Z,7.00
2022-11-03T07:01:35.207Z,8.00
2022-11-03T07:04:14.728Z,7.90
2022-11-03T07:06:43.287Z,9.00
2022-11-03T07:09:21.234Z,9.00
2022-11-03T07:11:50.934Z,8.20
2022-11-03T07:14:25.012Z,9.00
2022-11-03T07:16:56.029Z,10.40
2022-11-03T07:19:26.632Z,9.50
2022-11-03T07:22:04.491Z,10.30
2022-11-03T07:24:36.312Z,9.40
2022-11-03T07:27:19.832Z,8.50
2022-11-03T07:29:49.532Z,7.20
2022-11-03T07:32:22.539Z,8.10
2022-11-03T07:34:54.363Z,10.30
2022-11-03T07:37:25.867Z,7.80
2022-11-03T07:39:53.870Z,10.20
2022-11-03T07:42:24.313Z,10.90
2022-11-03T07:44:55.698Z,8.80
2022-11-03T07:47:25.699Z,10.10
2022-11-03T07:49:56.027Z,8.20
2022-11-03T07:52:25.960Z,7.50
2022-11-03T07:54:57.187Z,8.50
2022-11-03T07:57:30.329Z,7.40
2022-11-03T08:00:10.694Z,8.30
2022-11-03T08:02:48.401Z,8.60
2022-11-03T08:05:16.284Z,9.80
2022-11-03T08:07:43.990Z,8.30
2022-11-03T08:10:11.574Z,9.00
2022-11-03T08:12:39.391Z,8.10
2022-11-03T08:15:07.830Z,8.30
2022-11-03T08:17:35.399Z,8.50
2022-11-03T08:20:03.081Z,9.50
2022-11-03T08:22:30.705Z,7.20
2022-11-03T08:24:58.283Z,7.30
2022-11-03T08:27:27.530Z,9.30
2022-11-03T08:29:55.102Z,7.80
2022-11-03T08:32:22.641Z,7.20
2022-11-03T08:34:50.173Z,8.90
2022-11-03T08:37:17.704Z,9.50
2022-11-03T08:39:45.243Z,8.80
2022-11-03T08:42:12.799Z,8.10
2022-11-03T08:44:40.379Z,7.00
2022-11-03T08:47:07.897Z,8.10
2022-11-03T08:49:35.454Z,10.50
2022-11-03T08:52:03.033Z,10.00
2022-11-03T08:54:30.579Z,6.30
2022-11-03T08:56:58.434Z,8.90
2022-11-03T08:59:26.251Z,7.70
2022-11-03T09:01:53.923Z,6.80
2022-11-03T09:04:21.501Z,8.00
2022-11-03T09:06:49.019Z,8.80
2022-11-03T09:12:04.571Z,8.70
2022-11-03T09:14:32.158Z,8.70
2022-11-03T09:16:59.800Z,8.30
2022-11-03T09:19:28.435Z,7.90
2022-11-03T09:21:57.027Z,8.50
2022-11-03T09:24:24.654Z,7.50
2022-11-03T09:26:52.183Z,9.90
2022-11-03T09:29:19.806Z,11.70
2022-11-03T09:31:47.714Z,12.50
2022-11-03T09:34:15.295Z,7.80
2022-11-03T09:36:42.955Z,9.00
2022-11-03T09:39:10.531Z,7.90
2022-11-03T09:41:57.812Z,9.10
2022-11-03T09:44:26.071Z,6.90
2022-11-03T09:46:58.052Z,6.80
2022-11-03T09:49:27.767Z,6.50
2022-11-03T09:51:55.732Z,7.60
2022-11-03T09:54:24.084Z,7.60
2022-11-03T09:56:51.683Z,9.10
2022-11-03T09:59:21.969Z,6.40
2022-11-03T10:01:53.340Z,6.70
2022-11-03T10:04:27.846Z,7.80
2022-11-03T10:06:57.002Z,7.30
2022-11-03T10:09:26.156Z,7.20
2022-11-03T10:11:55.070Z,6.20
2022-11-03T10:14:23.143Z,6.60
2022-11-03T10:17:00.034Z,7.80
2022-11-03T10:19:28.072Z,8.10
2022-11-03T10:21:55.791Z,8.50
2022-11-03T10:24:25.258Z,7.40
2022-11-03T10:26:56.859Z,7.50
2022-11-03T10:29:27.522Z,7.80
2022-11-03T10:31:59.446Z,6.80
2022-11-03T10:34:34.942Z,8.00
2022-11-03T10:37:23.209Z,7.10
2022-11-03T10:39:55.510Z,7.50
2022-11-03T10:42:35.409Z,8.30
2022-11-03T10:45:15.297Z,9.20
2022-11-03T10:47:43.293Z,6.90
2022-11-03T10:50:27.566Z,6.80
2022-11-03T10:52:56.301Z,7.60
2022-11-03T10:55:26.248Z,4.80
2022-11-03T10:57:57.958Z,5.70
2022-11-03T11:00:25.666Z,5.40
2022-11-03T11:02:59.235Z,6.80
2022-11-03T11:07:55.345Z,7.40
2022-11-03T11:10:25.318Z,9.40
2022-11-03T11:13:25.561Z,6.00
2022-11-03T11:15:55.685Z,5.80
2022-11-03T11:18:29.587Z,10.00
2022-11-03T11:21:01.786Z,9.00
2022-11-03T11:23:29.312Z,6.60
2022-11-03T11:26:14.478Z,5.10
2022-11-03T11:28:43.012Z,6.60
2022-11-03T11:31:26.512Z,7.70
2022-11-03T11:34:10.352Z,6.80
2022-11-03T11:36:42.688Z,6.30
2022-11-03T11:39:32.028Z,6.10
2022-11-03T11:42:20.928Z,6.90
2022-11-03T11:44:56.708Z,6.60
2022-11-03T11:47:33.788Z,5.60
2022-11-03T11:50:07.134Z,5.20
2022-11-03T11:52:38.410Z,5.70
2022-11-03T11:55:06.783Z,6.80
2022-11-03T11:57:35.084Z,4.20
2022-11-03T12:00:03.011Z,7.70
2022-11-03T12:02:39.825Z,6.20
2022-11-03T12:05:19.586Z,5.00
2022-11-03T12:07:50.997Z,5.00
2022-11-03T12:13:02.715Z,5.20
2022-11-03T12:15:56.189Z,4.00
2022-11-03T12:18:49.353Z,5.00
2022-11-03T12:21:46.326Z,5.20
2022-11-03T12:24:36.151Z,5.80
2022-11-03T12:27:18.587Z,6.30
2022-11-03T12:29:46.410Z,6.50
2022-11-03T12:32:32.566Z,5.60
2022-11-03T12:35:02.995Z,7.20
2022-11-03T12:37:30.628Z,4.50
2022-11-03T12:39:58.168Z,3.10
2022-11-03T12:42:25.979Z,7.80
2022-11-03T12:44:53.783Z,5.70
2022-11-03T12:47:21.365Z,5.30
2022-11-03T12:49:49.375Z,6.90
2022-11-03T12:52:16.985Z,8.00
2022-11-03T12:54:44.565Z,7.80
2022-11-03T12:57:12.197Z,5.30
2022-11-03T12:59:40.560Z,5.50
2022-11-03T13:02:10.550Z,5.40
2022-11-03T13:04:39.091Z,5.70
2022-11-03T13:07:06.657Z,6.30
2022-11-03T13:09:35.754Z,3.30
2022-11-03T13:12:18.441Z,5.10
2022-11-03T13:14:47.841Z,5.60
2022-11-03T13:17:16.269Z,5.10
2022-11-03T13:19:43.798Z,5.40
2022-11-03T13:22:11.384Z,4.10
2022-11-03T13:24:38.922Z,6.30
2022-11-03T13:27:06.485Z,6.10
2022-11-03T13:29:35.897Z,5.60
2022-11-03T13:32:04.738Z,4.90
2022-11-03T13:34:32.326Z,4.50
2022-11-03T13:37:00.409Z,4.80
2022-11-03T13:39:28.226Z,6.50
2022-11-03T13:41:55.795Z,7.00
2022-11-03T13:44:23.303Z,5.70
2022-11-03T13:46:51.139Z,6.10
2022-11-03T13:52:09.782Z,7.20
2022-11-03T14:00:16.965Z,5.90
2022-11-03T14:05:32.416Z,6.50
2022-11-03T14:07:59.972Z,5.80
2022-11-03T14:10:27.693Z,6.50
2022-11-03T14:12:56.348Z,6.90
2022-11-03T14:15:23.898Z,5.90
2022-11-03T14:17:51.690Z,6.30
2022-11-03T14:20:19.414Z,5.00
2022-11-03T14:22:47.116Z,4.20
2022-11-03T14:25:14.675Z,6.50
2022-11-03T14:27:42.700Z,3.70
2022-11-03T14:30:11.599Z,5.90
2022-11-03T14:32:39.286Z,8.50
2022-11-03T14:35:07.657Z,5.70
2022-11-03T14:37:35.467Z,5.40
2022-11-03T14:40:04.036Z,6.50
2022-11-03T14:42:31.571Z,6.10
2022-11-03T14:44:59.086Z,7.40
2022-11-03T14:47:27.561Z,7.70
2022-11-03T14:49:55.076Z,7.10
2022-11-03T14:52:22.651Z,6.90
2022-11-03T14:54:52.048Z,7.10
2022-11-03T14:57:19.571Z,6.30
2022-11-03T14:59:52.209Z,6.50
2022-11-03T15:02:21.141Z,6.10
2022-11-03T15:04:48.808Z,5.50
2022-11-03T15:07:16.349Z,5.20
2022-11-03T15:09:43.919Z,6.80
2022-11-03T15:12:11.450Z,8.00
2022-11-03T15:14:38.986Z,9.40
2022-11-03T15:17:06.569Z,11.50
2022-11-03T15:19:34.325Z,10.50
2022-11-03T15:22:01.836Z,7.90
2022-11-03T15:27:17.284Z,8.50
2022-11-03T15:29:45.046Z,8.20
2022-11-03T15:32:12.623Z,7.60
2022-11-03T15:34:40.150Z,6.60
2022-11-03T15:37:07.684Z,6.10
2022-11-03T15:39:35.177Z,5.10
2022-11-03T15:42:02.795Z,6.50
2022-11-03T15:44:30.372Z,6.10
2022-11-03T15:46:57.932Z,8.40
2022-11-03T15:49:25.636Z,5.90
2022-11-03T15:51:53.157Z,8.70
2022-11-03T15:54:20.716Z,7.10
2022-11-03T15:56:48.499Z,7.10
2022-11-03T15:59:16.064Z,6.00
2022-11-03T16:01:43.753Z,7.80
2022-11-03T16:04:11.501Z,5.00
2022-11-03T16:07:07.464Z,6.90
2022-11-03T16:09:26.568Z,8.00
2022-11-03T16:11:54.061Z,8.90
2022-11-03T16:14:21.646Z,8.00
2022-11-03T16:16:49.162Z,6.20
2022-11-03T16:19:16.922Z,8.40
2022-11-03T16:21:44.759Z,8.00
2022-11-03T16:24:12.283Z,9.40
2022-11-03T16:26:39.992Z,13.50
2022-11-03T16:29:07.524Z,11.10
2022-11-03T16:31:35.885Z,6.90
2022-11-03T16:34:04.680Z,6.10
2022-11-03T16:36:32.217Z,5.90
2022-11-03T16:38:59.761Z,8.70
2022-11-03T16:41:27.276Z,8.50
2022-11-03T16:43:54.779Z,11.20
2022-11-03T16:46:22.420Z,12.90
2022-11-03T16:48:50.040Z,11.30
2022-11-03T16:51:17.983Z,10.90
2022-11-03T16:53:45.516Z,8.00
2022-11-03T16:56:13.724Z,11.10
2022-11-03T16:58:41.327Z,8.90
2022-11-03T17:01:09.110Z,7.90
2022-11-03T17:03:36.761Z,9.20
2022-11-03T17:06:04.487Z,7.60
2022-11-03T17:08:51.993Z,9.30
2022-11-03T17:11:35.888Z,149.80
2022-11-03T17:14:13.152Z,87.30
2022-11-03T17:16:45.181Z,74.40
2022-11-03T17:19:13.614Z,26.50
2022-11-03T17:21:41.374Z,16.60
2022-11-03T17:24:11.074Z,11.10
2022-11-03T17:26:56.030Z,8.80
2022-11-03T17:29:37.339Z,8.70
2022-11-03T17:32:35.860Z,12.20
2022-11-03T17:35:45.689Z,13.40
2022-11-03T17:38:17.538Z,19.40
2022-11-03T17:40:47.014Z,15.10
2022-11-03T17:43:21.189Z,12.10
2022-11-03T17:45:48.890Z,34.60
2022-11-03T17:48:17.323Z,44.80
2022-11-03T17:50:48.161Z,37.40
2022-11-03T17:53:31.965Z,37.20
2022-11-03T17:56:29.479Z,34.70
2022-11-03T17:58:49.870Z,31.60
2022-11-03T18:01:24.469Z,36.80
2022-11-03T18:03:52.633Z,31.20
2022-11-03T18:06:21.923Z,24.70
2022-11-03T18:12:56.883Z,52.50
2022-11-03T18:15:25.913Z,25.50
2022-11-03T18:17:53.474Z,21.20
2022-11-03T18:20:25.974Z,19.60
2022-11-03T18:22:57.733Z,20.90
2022-11-03T18:25:25.273Z,16.10
2022-11-03T18:27:52.791Z,36.80
2022-11-03T18:30:20.326Z,30.90
2022-11-03T18:32:48.951Z,23.00
2022-11-03T18:35:22.882Z,21.70
2022-11-03T18:40:20.185Z,51.90
2022-11-03T18:42:47.910Z,60.80
2022-11-03T18:45:18.615Z,33.20
2022-11-03T18:47:46.189Z,35.60
2022-11-03T18:50:16.297Z,27.40
2022-11-03T18:52:51.934Z,19.40
2022-11-03T18:55:19.535Z,77.20
2022-11-03T18:57:47.192Z,40.60
2022-11-03T19:00:20.821Z,18.20
2022-11-03T19:02:50.397Z,19.30
2022-11-03T19:05:19.046Z,15.90
2022-11-03T19:07:49.872Z,26.50
2022-11-03T19:10:22.215Z,36.00
2022-11-03T19:12:49.768Z,32.00
2022-11-03T19:15:21.445Z,24.40
2022-11-03T19:17:52.544Z,16.70
2022-11-03T19:20:20.447Z,16.80
2022-11-03T19:22:48.006Z,27.20
2022-11-03T19:25:15.896Z,16.20
2022-11-03T19:27:46.330Z,19.00
2022-11-03T19:30:18.025Z,15.00
2022-11-03T19:32:48.628Z,12.70
2022-11-03T19:35:35.332Z,13.40
2022-11-03T19:38:12.263Z,12.20
2022-11-03T19:41:03.809Z,12.40
2022-11-03T19:43:34.777Z,12.20
2022-11-03T19:46:04.686Z,12.60
2022-11-03T19:48:34.148Z,11.20
2022-11-03T19:51:04.110Z,11.60
2022-11-03T19:53:33.146Z,11.10
2022-11-03T19:56:01.419Z,10.90
2022-11-03T19:58:29.505Z,11.50
2022-11-03T20:00:57.147Z,9.50
2022-11-03T20:03:25.166Z,11.00
2022-11-03T20:05:56.477Z,12.20
2022-11-03T20:08:27.579Z,11.20
2022-11-03T20:10:55.905Z,13.40
2022-11-03T20:13:26.238Z,11.80
2022-11-03T20:16:00.766Z,12.50
2022-11-03T20:18:29.269Z,10.30
2022-11-03T20:20:58.222Z,11.80
2022-11-03T20:23:30.262Z,11.90
2022-11-03T20:25:58.537Z,11.40
2022-11-03T20:28:28.871Z,10.00
2022-11-03T20:30:57.203Z,9.50
2022-11-03T20:33:25.516Z,11.80
2022-11-03T20:35:54.575Z,10.90
2022-11-03T20:38:24.878Z,11.00
2022-11-03T20:40:58.829Z,9.30
2022-11-03T20:43:45.800Z,11.40
2022-11-03T20:46:36.556Z,9.70
2022-11-03T20:49:04.350Z,10.90
2022-11-03T20:51:35.066Z,11.00
2022-11-03T20:54:11.245Z,8.90
2022-11-03T20:56:38.828Z,8.40
2022-11-03T20:59:06.360Z,9.20
2022-11-03T21:01:34.257Z,10.20
2022-11-03T21:04:03.111Z,9.40
2022-11-03T21:06:32.319Z,9.60
2022-11-03T21:08:59.956Z,14.00
2022-11-03T21:11:33.818Z,18.70
2022-11-03T21:14:07.787Z,41.80
2022-11-03T21:16:51.382Z,26.20
2022-11-03T21:19:37.656Z,10.60
2022-11-03T21:22:45.851Z,20.20
2022-11-03T21:25:17.228Z,21.30
2022-11-03T21:27:45.612Z,17.50
2022-11-03T21:30:15.486Z,15.20
2022-11-03T21:32:43.484Z,12.30
2022-11-03T21:35:14.884Z,16.50
2022-11-03T21:37:42.450Z,74.50
2022-11-03T21:40:10.983Z,52.30
2022-11-03T21:42:54.546Z,21.20
2022-11-03T21:45:22.093Z,18.70
2022-11-03T21:48:11.817Z,19.10
2022-11-03T21:50:41.134Z,50.90
2022-11-03T21:53:09.414Z,24.50
2022-11-03T21:55:37.381Z,17.80
2022-11-03T21:58:05.311Z,23.50
2022-11-03T22:00:33.766Z,19.80
2022-11-03T22:03:01.628Z,19.90
2022-11-03T22:05:29.424Z,13.60
2022-11-03T22:07:56.993Z,12.60
2022-11-03T22:10:24.728Z,20.20
2022-11-03T22:12:52.385Z,9.70
2022-11-03T22:15:35.917Z,10.20
2022-11-03T22:18:06.061Z,13.10
2022-11-03T22:20:52.246Z,14.00
2022-11-03T22:23:35.805Z,14.50
2022-11-03T22:26:20.300Z,12.00
2022-11-03T22:29:07.825Z,11.20
2022-11-03T22:31:41.303Z,12.20
2022-11-03T22:34:26.233Z,16.30
2022-11-03T22:36:54.066Z,11.20
2022-11-03T22:39:37.838Z,10.20
2022-11-03T22:42:20.449Z,9.70
2022-11-03T22:45:03.991Z,13.00
2022-11-03T22:47:31.606Z,11.70
2022-11-03T22:49:59.127Z,11.30
2022-11-03T22:52:26.622Z,12.90
2022-11-03T22:54:54.126Z,10.10
2022-11-03T22:57:21.640Z,14.30
2022-11-03T22:59:49.271Z,9.70
2022-11-03T23:02:16.910Z,14.50
2022-11-03T23:04:46.300Z,11.50
2022-11-03T23:07:13.846Z,14.40
2022-11-03T23:09:41.439Z,11.50
2022-11-03T23:12:08.986Z,11.10
2022-11-03T23:14:52.541Z,11.40
2022-11-03T23:17:40.616Z,11.60
2022-11-03T23:20:29.196Z,8.30
2022-11-03T23:22:57.830Z,9.10
2022-11-03T23:25:25.355Z,10.00
2022-11-03T23:27:52.957Z,9.30
2022-11-03T23:30:20.573Z,11.20
2022-11-03T23:32:48.115Z,10.70
2022-11-03T23:35:16.851Z,9.70
2022-11-03T23:37:44.386Z,11.60
2022-11-03T23:40:15.923Z,9.20
2022-11-03T23:42:46.459Z,9.80
2022-11-03T23:45:40.440Z,11.00
2022-11-03T23:48:34.237Z,11.20
2022-11-03T23:51:01.740Z,9.80
2022-11-03T23:53:29.506Z,12.20
2022-11-03T23:56:16.050Z,10.10
2022-11-03T23:58:43.868Z,9.60
